createdAt,value
2019-05-22T00:00:58.280Z,13.20
2019-05-22T00:03:33.438Z,13.20
2019-05-22T00:06:03.869Z,13.20
2019-05-22T00:08:36.085Z,13.10
2019-05-22T00:11:05.800Z,13.10
2019-05-22T00:13:39.938Z,13.10
2019-05-22T00:16:11.298Z,13.10
2019-05-22T00:18:41.874Z,13.10
2019-05-22T00:21:14.091Z,13.10
2019-05-22T00:23:45.521Z,13.10
2019-05-22T00:26:15.301Z,13.10
2019-05-22T00:28:46.975Z,13.00
2019-05-22T00:31:18.334Z,13.00
2019-05-22T00:33:49.004Z,13.00
2019-05-22T00:36:20.560Z,13.00
2019-05-22T00:38:51.196Z,12.90
2019-05-22T00:41:23.292Z,12.90
2019-05-22T00:43:52.930Z,12.90
2019-05-22T00:46:24.315Z,12.90
2019-05-22T00:48:54.745Z,12.80
2019-05-22T00:51:40.610Z,12.90
2019-05-22T00:54:38.515Z,12.80
2019-05-22T00:57:17.236Z,12.80
2019-05-22T00:59:48.641Z,12.80
2019-05-22T01:02:21.290Z,12.80
2019-05-22T01:04:52.095Z,12.70
2019-05-22T01:07:30.056Z,12.70
2019-05-22T01:09:59.886Z,12.70
2019-05-22T01:12:31.826Z,12.70
2019-05-22T01:15:07.893Z,12.70
2019-05-22T01:17:38.110Z,12.70
2019-05-22T01:20:11.607Z,12.70
2019-05-22T01:22:42.574Z,12.60
2019-05-22T01:25:14.919Z,12.60
2019-05-22T01:27:46.511Z,12.60
2019-05-22T01:30:24.026Z,12.60
2019-05-22T01:32:54.153Z,12.60
2019-05-22T01:35:31.109Z,12.60
2019-05-22T01:38:01.651Z,12.60
2019-05-22T01:40:41.375Z,12.60
2019-05-22T01:43:14.096Z,12.50
2019-05-22T01:45:52.388Z,12.50
2019-05-22T01:48:26.393Z,12.50
2019-05-22T01:50:57.316Z,12.50
2019-05-22T01:53:36.059Z,12.50
2019-05-22T01:56:08.368Z,12.50
2019-05-22T01:58:41.245Z,12.50
2019-05-22T02:01:16.757Z,12.50
2019-05-22T02:03:47.622Z,12.50
2019-05-22T02:06:19.201Z,12.40
2019-05-22T02:08:53.513Z,12.40
2019-05-22T02:11:24.515Z,12.40
2019-05-22T02:14:03.706Z,12.40
2019-05-22T02:16:34.294Z,12.40
2019-05-22T02:19:06.326Z,12.40
2019-05-22T02:21:36.001Z,12.40
2019-05-22T02:24:07.139Z,12.40
2019-05-22T02:26:37.326Z,12.40
2019-05-22T02:29:08.770Z,12.40
2019-05-22T02:31:40.443Z,12.40
2019-05-22T02:34:10.484Z,12.30
2019-05-22T02:36:41.804Z,12.30
2019-05-22T02:39:23.570Z,12.30
2019-05-22T02:41:58.692Z,12.20
2019-05-22T02:44:29.796Z,12.20
2019-05-22T02:47:16.699Z,12.20
2019-05-22T02:49:32.742Z,12.20
2019-05-22T02:52:03.724Z,12.20
2019-05-22T02:54:34.191Z,12.20
2019-05-22T02:57:06.554Z,12.20
2019-05-22T02:59:37.132Z,12.20
2019-05-22T03:02:07.583Z,12.20
2019-05-22T03:04:55.831Z,12.20
2019-05-22T03:07:26.545Z,12.20
2019-05-22T03:09:58.057Z,12.10
2019-05-22T03:12:30.445Z,12.20
2019-05-22T03:15:01.746Z,12.10
2019-05-22T03:17:32.011Z,12.10
2019-05-22T03:20:06.470Z,12.10
2019-05-22T03:22:42.021Z,12.10
2019-05-22T03:25:13.143Z,12.10
2019-05-22T03:27:46.723Z,12.10
2019-05-22T03:30:24.105Z,12.00
2019-05-22T03:32:55.390Z,12.00
2019-05-22T03:35:27.896Z,12.00
2019-05-22T03:37:59.015Z,12.00
2019-05-22T03:40:29.744Z,12.00
2019-05-22T03:43:08.454Z,12.00
2019-05-22T03:45:39.905Z,12.00
2019-05-22T03:48:11.077Z,12.00
2019-05-22T03:50:41.440Z,11.90
2019-05-22T03:53:16.822Z,11.90
2019-05-22T03:55:48.613Z,11.90
2019-05-22T03:58:19.625Z,11.90
2019-05-22T04:00:51.685Z,11.90
2019-05-22T04:03:23.186Z,11.90
2019-05-22T04:05:54.254Z,11.90
2019-05-22T04:08:26.507Z,11.90
2019-05-22T04:11:04.697Z,11.90
2019-05-22T04:13:35.809Z,11.90
2019-05-22T04:16:09.022Z,11.90
2019-05-22T04:18:41.152Z,11.90
2019-05-22T04:21:10.985Z,11.90
2019-05-22T04:23:41.107Z,11.80
2019-05-22T04:26:12.786Z,11.80
2019-05-22T04:28:50.901Z,11.90
2019-05-22T04:31:33.287Z,11.80
2019-05-22T04:34:04.827Z,11.80
2019-05-22T04:36:36.983Z,11.80
2019-05-22T04:39:12.443Z,11.80
2019-05-22T04:41:42.974Z,11.80
2019-05-22T04:44:13.235Z,11.80
2019-05-22T04:46:43.092Z,11.80
2019-05-22T04:49:13.128Z,11.70
2019-05-22T04:51:43.573Z,11.70
2019-05-22T04:54:13.232Z,11.70
2019-05-22T04:56:43.192Z,11.70
2019-05-22T04:59:13.721Z,11.70
2019-05-22T05:01:43.578Z,11.70
2019-05-22T05:04:13.441Z,11.70
2019-05-22T05:06:43.218Z,11.60
2019-05-22T05:09:14.147Z,11.60
2019-05-22T05:11:44.432Z,11.60
2019-05-22T05:14:14.460Z,11.60
2019-05-22T05:16:44.371Z,11.60
2019-05-22T05:19:14.261Z,11.60
2019-05-22T05:21:44.163Z,11.60
2019-05-22T05:24:14.034Z,11.60
2019-05-22T05:26:44.644Z,11.50
2019-05-22T05:29:30.989Z,11.50
2019-05-22T05:32:01.203Z,11.50
2019-05-22T05:34:58.882Z,11.50
2019-05-22T05:37:28.768Z,11.50
2019-05-22T05:40:26.584Z,11.50
2019-05-22T05:42:57.305Z,11.50
2019-05-22T05:45:29.108Z,11.50
2019-05-22T05:47:59.279Z,11.50
2019-05-22T05:50:39.562Z,11.50
2019-05-22T05:53:03.429Z,11.50
2019-05-22T05:56:04.599Z,11.50
2019-05-22T05:58:34.694Z,11.50
2019-05-22T06:01:17.146Z,11.40
2019-05-22T06:03:46.868Z,11.50
2019-05-22T06:07:11.940Z,11.40
2019-05-22T06:09:41.806Z,11.40
2019-05-22T06:12:13.097Z,11.50
2019-05-22T06:14:42.966Z,11.50
2019-05-22T06:18:10.406Z,11.40
2019-05-22T06:20:42.117Z,11.50
2019-05-22T06:23:50.599Z,11.40
2019-05-22T06:27:30.659Z,11.40
2019-05-22T06:30:07.689Z,11.40
2019-05-22T06:33:21.734Z,11.40
2019-05-22T06:35:52.235Z,11.40
2019-05-22T06:38:49.266Z,11.40
2019-05-22T06:41:20.042Z,11.40
2019-05-22T06:44:39.702Z,11.40
2019-05-22T06:47:13.645Z,11.40
2019-05-22T06:49:45.174Z,11.40
2019-05-22T06:52:15.647Z,11.40
2019-05-22T06:54:45.452Z,11.40
2019-05-22T06:57:28.447Z,11.40
2019-05-22T07:00:13.015Z,11.40
2019-05-22T07:02:33.890Z,11.40
2019-05-22T07:05:06.019Z,11.30
2019-05-22T07:07:36.031Z,11.40
2019-05-22T07:10:08.294Z,11.30
2019-05-22T07:12:39.194Z,11.30
2019-05-22T07:15:41.776Z,11.30
2019-05-22T07:18:14.665Z,11.40
2019-05-22T07:20:46.517Z,11.30
2019-05-22T07:23:22.715Z,11.30
2019-05-22T07:25:52.817Z,11.40
2019-05-22T07:28:23.872Z,11.40
2019-05-22T07:30:53.641Z,11.40
2019-05-22T07:33:23.769Z,11.30
2019-05-22T07:36:12.085Z,11.30
2019-05-22T07:38:25.091Z,11.30
2019-05-22T07:40:55.948Z,11.30
2019-05-22T07:43:26.241Z,11.40
2019-05-22T07:45:57.012Z,11.40
2019-05-22T07:48:28.911Z,11.40
2019-05-22T07:50:58.670Z,11.40
2019-05-22T07:53:29.511Z,11.40
2019-05-22T07:56:02.518Z,11.40
2019-05-22T07:58:33.033Z,11.40
2019-05-22T08:01:03.513Z,11.40
2019-05-22T08:03:34.204Z,11.40
2019-05-22T08:06:06.769Z,11.40
2019-05-22T08:08:36.954Z,11.40
2019-05-22T08:11:07.473Z,11.40
2019-05-22T08:13:37.715Z,11.40
2019-05-22T08:16:08.404Z,11.40
2019-05-22T08:18:39.612Z,11.40
2019-05-22T08:21:11.719Z,11.40
2019-05-22T08:23:42.103Z,11.40
2019-05-22T08:26:15.115Z,11.40
2019-05-22T08:28:46.315Z,11.40
2019-05-22T08:31:17.127Z,11.40
2019-05-22T08:33:46.943Z,11.40
2019-05-22T08:36:17.066Z,11.40
2019-05-22T08:38:47.612Z,11.40
2019-05-22T08:41:22.223Z,11.40
2019-05-22T08:44:14.437Z,11.40
2019-05-22T08:46:23.986Z,11.40
2019-05-22T08:48:54.462Z,11.50
2019-05-22T08:51:24.689Z,11.50
2019-05-22T08:53:55.250Z,11.50
2019-05-22T08:56:26.154Z,11.50
2019-05-22T08:58:56.174Z,11.50
2019-05-22T09:01:25.983Z,11.50
2019-05-22T09:03:56.494Z,11.50
2019-05-22T09:06:26.531Z,11.50
2019-05-22T09:08:56.306Z,11.50
2019-05-22T09:11:26.021Z,11.50
2019-05-22T09:13:55.674Z,11.50
2019-05-22T09:16:25.470Z,11.50
2019-05-22T09:18:55.634Z,11.50
2019-05-22T09:21:26.430Z,11.50
2019-05-22T09:23:56.647Z,11.50
2019-05-22T09:26:26.755Z,11.50
2019-05-22T09:28:56.655Z,11.50
2019-05-22T09:31:26.367Z,11.50
2019-05-22T09:33:56.202Z,11.50
2019-05-22T09:36:25.996Z,11.50
2019-05-22T09:38:55.704Z,11.50
2019-05-22T09:41:25.320Z,11.50
2019-05-22T09:43:55.117Z,11.50
2019-05-22T09:46:25.709Z,11.50
2019-05-22T09:48:56.733Z,11.50
2019-05-22T09:51:26.716Z,11.60
2019-05-22T09:53:56.666Z,11.60
2019-05-22T09:56:27.895Z,11.60
2019-05-22T09:58:57.789Z,11.60
2019-05-22T10:01:27.810Z,11.60
2019-05-22T10:03:57.950Z,11.60
2019-05-22T10:06:27.943Z,11.60
2019-05-22T10:08:57.705Z,11.60
2019-05-22T10:11:28.047Z,11.60
2019-05-22T10:13:58.134Z,11.60
2019-05-22T10:16:27.841Z,11.60
2019-05-22T10:18:57.623Z,11.60
2019-05-22T10:21:27.335Z,11.60
2019-05-22T10:23:57.481Z,11.60
2019-05-22T10:26:27.121Z,11.60
2019-05-22T10:28:56.918Z,11.60
2019-05-22T10:31:27.111Z,11.60
2019-05-22T10:33:57.308Z,11.60
2019-05-22T10:36:27.417Z,11.60
2019-05-22T10:38:57.454Z,11.60
2019-05-22T10:41:27.537Z,11.60
2019-05-22T10:43:57.507Z,11.60
2019-05-22T10:46:27.349Z,11.60
2019-05-22T10:48:57.324Z,11.70
2019-05-22T10:51:27.957Z,11.70
2019-05-22T10:53:58.223Z,11.70
2019-05-22T10:56:28.300Z,11.70
2019-05-22T10:59:01.443Z,11.60
2019-05-22T11:01:31.635Z,11.70
2019-05-22T11:04:01.899Z,11.60
2019-05-22T11:06:31.834Z,11.70
2019-05-22T11:09:01.592Z,11.70
2019-05-22T11:11:32.680Z,11.70
2019-05-22T11:14:03.308Z,11.70
2019-05-22T11:16:33.055Z,11.60
2019-05-22T11:19:03.224Z,11.60
2019-05-22T11:21:33.534Z,11.60
2019-05-22T11:24:03.934Z,11.70
2019-05-22T11:26:33.617Z,11.60
2019-05-22T11:29:04.800Z,11.70
2019-05-22T11:31:34.730Z,11.70
2019-05-22T11:34:05.489Z,11.70
2019-05-22T11:36:35.658Z,11.60
2019-05-22T11:39:08.847Z,11.60
2019-05-22T11:41:39.170Z,11.60
2019-05-22T11:44:09.327Z,11.60
2019-05-22T11:46:39.729Z,11.60
2019-05-22T11:49:09.514Z,11.60
2019-05-22T11:51:39.371Z,11.60
2019-05-22T11:54:10.023Z,11.60
2019-05-22T11:56:39.946Z,11.60
2019-05-22T11:59:09.958Z,11.60
2019-05-22T12:01:39.731Z,11.60
2019-05-22T12:04:11.289Z,11.60
2019-05-22T12:06:41.889Z,11.60
2019-05-22T12:09:12.031Z,11.60
2019-05-22T12:11:43.268Z,11.60
2019-05-22T12:14:13.899Z,11.60
2019-05-22T12:16:43.759Z,11.70
2019-05-22T12:19:13.731Z,11.70
2019-05-22T12:21:43.560Z,11.70
2019-05-22T12:24:26.069Z,11.70
2019-05-22T12:26:45.022Z,11.70
2019-05-22T12:29:17.507Z,11.80
2019-05-22T12:31:46.305Z,11.70
2019-05-22T12:34:16.363Z,11.80
2019-05-22T12:36:46.147Z,11.80
2019-05-22T12:39:16.105Z,11.90
2019-05-22T12:41:47.216Z,11.90
2019-05-22T12:44:17.126Z,12.00
2019-05-22T12:46:46.933Z,12.00
2019-05-22T12:49:17.842Z,12.10
2019-05-22T12:51:48.640Z,12.10
2019-05-22T12:54:19.641Z,12.20
2019-05-22T12:56:49.411Z,12.20
2019-05-22T12:59:20.203Z,12.20
2019-05-22T13:01:51.770Z,12.20
2019-05-22T13:04:22.315Z,12.20
2019-05-22T13:06:52.309Z,12.20
2019-05-22T13:09:23.255Z,12.20
2019-05-22T13:11:52.928Z,12.20
2019-05-22T13:14:22.601Z,12.20
2019-05-22T13:16:52.564Z,12.20
2019-05-22T13:19:22.947Z,12.20
2019-05-22T13:21:56.680Z,12.20
2019-05-22T13:24:27.968Z,12.20
2019-05-22T13:26:59.085Z,12.20
2019-05-22T13:29:30.441Z,12.30
2019-05-22T13:32:00.938Z,12.30
2019-05-22T13:34:32.870Z,12.40
2019-05-22T13:37:03.662Z,12.40
2019-05-22T13:39:33.397Z,12.40
2019-05-22T13:42:03.205Z,12.40
2019-05-22T13:44:33.220Z,12.50
2019-05-22T13:47:05.204Z,12.50
2019-05-22T13:49:37.339Z,12.60
2019-05-22T13:52:07.823Z,12.60
2019-05-22T13:54:37.615Z,12.60
2019-05-22T13:57:07.921Z,12.70
2019-05-22T13:59:37.737Z,12.70
2019-05-22T14:02:07.950Z,12.80
2019-05-22T14:04:38.099Z,12.70
2019-05-22T14:07:08.982Z,12.80
2019-05-22T14:09:39.543Z,12.80
2019-05-22T14:12:09.854Z,12.80
2019-05-22T14:14:39.593Z,12.90
2019-05-22T14:17:09.450Z,12.90
2019-05-22T14:19:39.421Z,13.00
2019-05-22T14:22:09.741Z,13.00
2019-05-22T14:24:39.521Z,13.10
2019-05-22T14:27:09.128Z,13.20
2019-05-22T14:29:39.035Z,13.20
2019-05-22T14:32:09.982Z,13.30
2019-05-22T14:34:39.789Z,13.20
2019-05-22T14:37:11.105Z,13.30
2019-05-22T14:39:41.773Z,13.30
2019-05-22T14:42:11.970Z,13.30
2019-05-22T14:44:41.638Z,13.30
2019-05-22T14:47:15.593Z,13.30
2019-05-22T14:49:43.016Z,13.30
2019-05-22T14:52:13.446Z,13.30
2019-05-22T14:54:44.241Z,13.20
2019-05-22T14:57:14.227Z,13.20
2019-05-22T14:59:44.030Z,13.30
2019-05-22T15:02:13.975Z,13.30
2019-05-22T15:04:43.701Z,13.30
2019-05-22T15:07:13.674Z,13.20
2019-05-22T15:09:43.352Z,13.20
2019-05-22T15:12:13.345Z,13.10
2019-05-22T15:14:43.285Z,13.10
2019-05-22T15:17:31.167Z,13.10
2019-05-22T15:19:46.680Z,13.10
2019-05-22T15:22:16.434Z,13.10
2019-05-22T15:24:46.491Z,13.10
2019-05-22T15:27:17.787Z,13.10
2019-05-22T15:29:47.567Z,13.10
2019-05-22T15:32:18.071Z,13.10
2019-05-22T15:34:48.301Z,13.10
2019-05-22T15:37:20.854Z,13.00
2019-05-22T15:39:51.533Z,13.10
2019-05-22T15:42:37.982Z,13.10
2019-05-22T15:45:10.848Z,13.10
2019-05-22T15:47:54.629Z,13.20
2019-05-22T15:50:17.444Z,13.20
2019-05-22T15:52:53.303Z,13.30
2019-05-22T15:55:25.290Z,13.40
2019-05-22T15:57:58.170Z,13.40
2019-05-22T16:00:33.313Z,13.50
2019-05-22T16:03:10.687Z,13.50
2019-05-22T16:05:42.276Z,13.50
2019-05-22T16:08:13.371Z,13.50
2019-05-22T16:10:44.805Z,13.50
2019-05-22T16:13:17.856Z,13.50
2019-05-22T16:15:48.995Z,13.50
2019-05-22T16:18:22.146Z,13.50
2019-05-22T16:20:53.107Z,13.50
2019-05-22T16:23:23.038Z,13.50
2019-05-22T16:25:54.068Z,13.50
2019-05-22T16:28:24.810Z,13.50
2019-05-22T16:30:56.331Z,13.50
2019-05-22T16:33:27.054Z,13.40
2019-05-22T16:35:56.738Z,13.40
2019-05-22T16:38:27.266Z,13.40
2019-05-22T16:40:57.473Z,13.40
2019-05-22T16:43:47.149Z,13.40
2019-05-22T16:46:00.380Z,13.40
2019-05-22T16:48:30.148Z,13.30
2019-05-22T16:51:00.650Z,13.30
2019-05-22T16:53:31.389Z,13.30
2019-05-22T16:56:01.619Z,13.30
2019-05-22T16:58:31.438Z,13.30
2019-05-22T17:01:01.230Z,13.30
2019-05-22T17:03:31.107Z,13.20
2019-05-22T17:06:01.041Z,13.20
2019-05-22T17:08:31.272Z,13.20
2019-05-22T17:11:04.308Z,13.20
2019-05-22T17:13:35.561Z,13.20
2019-05-22T17:16:06.696Z,13.10
2019-05-22T17:18:47.285Z,13.20
2019-05-22T17:21:09.677Z,13.10
2019-05-22T17:23:40.451Z,13.20
2019-05-22T17:26:10.213Z,13.10
2019-05-22T17:28:40.659Z,13.10
2019-05-22T17:31:11.200Z,13.20
2019-05-22T17:33:41.379Z,13.10
2019-05-22T17:36:11.962Z,13.10
2019-05-22T17:38:42.210Z,13.10
2019-05-22T17:41:12.512Z,13.10
2019-05-22T17:43:43.633Z,13.10
2019-05-22T17:46:15.114Z,13.10
2019-05-22T17:48:45.043Z,13.10
2019-05-22T17:51:15.765Z,13.10
2019-05-22T17:53:45.478Z,13.00
2019-05-22T17:56:15.579Z,13.00
2019-05-22T17:58:45.454Z,13.00
2019-05-22T18:01:15.551Z,13.00
2019-05-22T18:03:45.458Z,13.00
2019-05-22T18:06:15.420Z,13.00
2019-05-22T18:08:45.370Z,12.90
2019-05-22T18:11:16.065Z,12.90
2019-05-22T18:13:59.553Z,12.90
2019-05-22T18:16:29.706Z,12.90
2019-05-22T18:19:00.116Z,12.90
2019-05-22T18:21:31.053Z,12.80
2019-05-22T18:24:01.055Z,12.80
2019-05-22T18:26:30.814Z,12.80
2019-05-22T18:29:03.810Z,12.70
2019-05-22T18:31:33.961Z,12.70
2019-05-22T18:34:03.854Z,12.70
2019-05-22T18:36:33.793Z,12.70
2019-05-22T18:39:04.131Z,12.60
2019-05-22T18:41:34.027Z,12.60
2019-05-22T18:44:04.341Z,12.60
2019-05-22T18:46:34.149Z,12.50
2019-05-22T18:49:04.156Z,12.50
2019-05-22T18:51:34.074Z,12.50
2019-05-22T18:54:03.816Z,12.40
2019-05-22T18:56:33.508Z,12.40
2019-05-22T18:59:03.644Z,12.30
2019-05-22T19:01:33.432Z,12.30
2019-05-22T19:04:03.125Z,12.20
2019-05-22T19:06:32.975Z,12.20
2019-05-22T19:09:02.836Z,12.20
2019-05-22T19:11:32.940Z,12.10
2019-05-22T19:14:02.696Z,12.10
2019-05-22T19:16:32.849Z,12.00
2019-05-22T19:19:02.907Z,12.00
2019-05-22T19:21:33.075Z,11.90
2019-05-22T19:24:02.951Z,11.90
2019-05-22T19:26:32.669Z,11.90
2019-05-22T19:29:03.511Z,11.80
2019-05-22T19:31:33.550Z,11.80
2019-05-22T19:34:03.337Z,11.80
2019-05-22T19:36:33.415Z,11.80
2019-05-22T19:39:03.885Z,11.70
2019-05-22T19:41:34.057Z,11.70
2019-05-22T19:44:05.551Z,11.60
2019-05-22T19:46:35.554Z,11.60
2019-05-22T19:49:05.489Z,11.60
2019-05-22T19:51:36.689Z,11.50
2019-05-22T19:54:06.405Z,11.50
2019-05-22T19:56:36.749Z,11.50
2019-05-22T19:59:08.590Z,11.50
2019-05-22T20:01:39.522Z,11.40
2019-05-22T20:04:09.557Z,11.40
2019-05-22T20:06:39.457Z,11.40
2019-05-22T20:09:09.955Z,11.40
2019-05-22T20:11:40.564Z,11.30
2019-05-22T20:14:10.394Z,11.30
2019-05-22T20:16:40.518Z,11.30
2019-05-22T20:19:10.782Z,11.30
2019-05-22T20:21:41.191Z,11.30
2019-05-22T20:24:11.020Z,11.20
2019-05-22T20:26:41.226Z,11.20
2019-05-22T20:29:12.467Z,11.20
2019-05-22T20:31:42.573Z,11.20
2019-05-22T20:34:13.643Z,11.10
2019-05-22T20:36:43.626Z,11.10
2019-05-22T20:39:16.101Z,11.10
2019-05-22T20:41:46.248Z,11.10
2019-05-22T20:44:16.542Z,11.10
2019-05-22T20:46:48.575Z,11.00
2019-05-22T20:49:19.656Z,11.00
2019-05-22T20:51:49.833Z,11.00
2019-05-22T20:54:20.647Z,11.00
2019-05-22T20:56:52.865Z,10.90
2019-05-22T20:59:24.470Z,10.90
2019-05-22T21:01:55.363Z,10.90
2019-05-22T21:04:27.263Z,10.90
2019-05-22T21:07:01.085Z,10.90
2019-05-22T21:09:31.428Z,10.80
2019-05-22T21:12:01.570Z,10.80
2019-05-22T21:14:31.338Z,10.80
2019-05-22T21:17:02.369Z,10.80
2019-05-22T21:19:32.608Z,10.80
2019-05-22T21:22:02.575Z,10.80
2019-05-22T21:24:32.226Z,10.80
2019-05-22T21:27:01.983Z,10.80
2019-05-22T21:29:32.523Z,10.80
2019-05-22T21:32:02.840Z,10.80
2019-05-22T21:34:32.840Z,10.80
2019-05-22T21:37:04.318Z,10.80
2019-05-22T21:39:35.167Z,10.80
2019-05-22T21:42:07.525Z,10.80
2019-05-22T21:44:37.457Z,10.80
2019-05-22T21:47:07.341Z,10.80
2019-05-22T21:49:38.958Z,10.80
2019-05-22T21:52:10.080Z,10.80
2019-05-22T21:54:39.871Z,10.80
2019-05-22T21:57:10.038Z,10.80
2019-05-22T21:59:41.745Z,10.70
2019-05-22T22:02:20.629Z,10.70
2019-05-22T22:04:53.201Z,10.60
2019-05-22T22:07:23.414Z,10.60
2019-05-22T22:09:54.130Z,10.60
2019-05-22T22:12:24.824Z,10.50
2019-05-22T22:14:54.642Z,10.50
2019-05-22T22:17:26.419Z,10.50
2019-05-22T22:19:56.479Z,10.40
2019-05-22T22:22:29.398Z,10.40
2019-05-22T22:25:00.735Z,10.30
2019-05-22T22:27:31.079Z,10.30
2019-05-22T22:30:02.594Z,10.30
2019-05-22T22:32:33.922Z,10.20
2019-05-22T22:35:04.653Z,10.20
2019-05-22T22:37:34.547Z,10.20
2019-05-22T22:40:07.521Z,10.20
2019-05-22T22:42:37.802Z,10.20
2019-05-22T22:45:11.339Z,10.10
2019-05-22T22:47:45.797Z,10.10
2019-05-22T22:50:17.966Z,10.10
2019-05-22T22:52:48.572Z,10.00
2019-05-22T22:55:19.949Z,10.00
2019-05-22T22:57:51.358Z,10.00
2019-05-22T23:00:42.816Z,9.90
2019-05-22T23:03:16.459Z,9.90
2019-05-22T23:05:48.744Z,9.90
2019-05-22T23:08:23.871Z,9.90
2019-05-22T23:10:54.774Z,9.80
2019-05-22T23:13:25.317Z,9.80
2019-05-22T23:15:56.554Z,9.80
2019-05-22T23:19:04.339Z,9.80
2019-05-22T23:21:34.494Z,9.70
2019-05-22T23:24:05.051Z,9.80
2019-05-22T23:26:35.351Z,9.70
2019-05-22T23:29:06.817Z,9.70
2019-05-22T23:31:38.194Z,9.70
2019-05-22T23:34:09.663Z,9.70
2019-05-22T23:36:40.041Z,9.70
2019-05-22T23:39:12.645Z,9.70
2019-05-22T23:41:42.999Z,9.70
2019-05-22T23:44:14.532Z,9.70
2019-05-22T23:46:44.507Z,9.70
2019-05-22T23:49:14.698Z,9.70
2019-05-22T23:51:45.249Z,9.70
2019-05-22T23:54:17.081Z,9.70
2019-05-22T23:56:46.948Z,9.70
2019-05-22T23:59:17.950Z,9.60
